Chambersburg, Ohio
Current Conditions -  °F | °C
As of 12:51 PM on Thursday 18 Dec 2014 (Local Time) from KCAK Reporting Station
Light Snow Light Snow  
Wind Chill: 20°   Ceiling: 1600
Heat Index: 29°   Visibility: 7mi
Dew Point: 21°   Wind: 9mph
Humidity: 72%   Direction: 280°W
Pressure: 30.16"   Gusts: NA
Location:  40.7427°N, 81.0929°W
Report Text: KCAK 181751Z 28008KT 7SM -SN OVC016 M02/M06 A3016 RMK AO2 SLP227 PCPN VRY LGT P0000 60000 T10171061 11017 21022 58010
Loading
Personal Weather Stations






























Interactive Weather Map New forecast layout! Learn more

10-Day Weather Forecast

Advertisements
Track Severe Weather on mobile